Time;durP1;ratioP1;P1;durP2;ratioP2;P2;SDS_P1;SDS_P2;PMS_P1;PMS_P2;Temp;Humidity;BMP_temperature;BMP_pressure;BME280_temperature;BME280_humidity;BME280_pressure;Samples;Min_cycle;Max_cycle;Signal;HPM_P1;HPM_P2
2022/05/19 00:01:24;;;;;;;4.47;4.07;;;19.80;99.90;;;;;;5035164;28;20463;-79
2022/05/19 00:03:51;;;;;;;5.20;3.90;;;19.80;99.90;;;;;;5039551;28;20453;-79
2022/05/19 00:06:18;;;;;;;5.13;3.83;;;19.70;99.90;;;;;;5035027;28;20462;-79
2022/05/19 00:08:45;;;;;;;5.13;4.63;;;19.70;99.90;;;;;;5031135;28;20461;-78
2022/05/19 00:11:14;;;;;;;5.93;3.50;;;19.70;99.90;;;;;;5035685;28;20540;-78
2022/05/19 00:13:41;;;;;;;4.60;4.20;;;19.60;99.90;;;;;;5037411;28;20457;-79
2022/05/19 00:16:10;;;;;;;5.73;3.90;;;19.60;99.90;;;;;;5033716;28;20563;-79
2022/05/19 00:18:38;;;;;;;4.93;3.87;;;19.60;99.90;;;;;;5032205;28;20511;-78
2022/05/19 00:21:06;;;;;;;4.40;3.40;;;19.60;99.90;;;;;;5039786;28;20976;-79
2022/05/19 00:23:33;;;;;;;4.20;3.50;;;19.50;99.90;;;;;;5029873;28;20461;-78
2022/05/19 00:26:00;;;;;;;4.23;3.50;;;19.50;99.90;;;;;;5026757;28;21019;-79
2022/05/19 00:28:26;;;;;;;5.17;4.53;;;19.50;99.90;;;;;;5034617;28;20461;-78
2022/05/19 00:30:53;;;;;;;4.87;3.70;;;19.50;99.90;;;;;;5034813;28;20464;-78
2022/05/19 00:33:22;;;;;;;5.80;3.60;;;19.50;99.90;;;;;;5040127;28;20571;-78
2022/05/19 00:35:49;;;;;;;5.40;3.47;;;19.40;99.90;;;;;;5030928;28;20910;-79
2022/05/19 00:38:16;;;;;;;6.03;3.80;;;19.40;99.90;;;;;;5032029;28;20536;-79
2022/05/19 00:40:47;;;;;;;6.07;4.00;;;19.40;99.90;;;;;;5036307;28;20465;-78
2022/05/19 00:43:15;;;;;;;6.80;3.03;;;19.30;99.90;;;;;;5039167;28;20461;-79
2022/05/19 00:45:48;;;;;;;5.37;3.10;;;19.30;99.90;;;;;;5024146;28;20477;-78
2022/05/19 00:48:19;;;;;;;4.60;3.37;;;19.30;99.90;;;;;;5020542;28;20464;-79
2022/05/19 00:50:52;;;;;;;4.93;3.57;;;19.30;99.90;;;;;;5074926;22;21650;-79
2022/05/19 00:53:29;;;;;;;6.57;2.97;;;19.30;99.90;;;;;;5026837;28;21201;-79
2022/05/19 00:55:58;;;;;;;3.23;2.93;;;19.30;99.90;;;;;;5028673;28;20456;-79
2022/05/19 00:58:34;;;;;;;4.10;2.80;;;19.30;99.90;;;;;;5035281;28;20452;-79
2022/05/19 01:01:02;;;;;;;5.03;3.40;;;19.30;99.90;;;;;;5024551;28;20481;-79
2022/05/19 01:03:34;;;;;;;3.30;2.70;;;19.30;99.90;;;;;;5019377;28;20457;-78
2022/05/19 01:06:10;;;;;;;4.03;3.23;;;19.30;99.90;;;;;;5012906;28;20462;-79
2022/05/19 01:08:42;;;;;;;6.23;3.50;;;19.20;99.90;;;;;;5008929;28;20459;-78
2022/05/19 01:11:10;;;;;;;4.30;3.33;;;19.30;99.90;;;;;;5007815;28;20524;-79
2022/05/19 01:13:37;;;;;;;5.37;3.73;;;19.20;99.90;;;;;;5009499;28;20512;-79
2022/05/19 01:16:07;;;;;;;3.83;2.90;;;19.20;99.90;;;;;;5009783;28;20446;-79
2022/05/19 01:18:35;;;;;;;4.10;2.93;;;19.30;99.90;;;;;;5016946;28;20476;-79
2022/05/19 01:21:04;;;;;;;3.57;3.07;;;19.20;99.90;;;;;;5013455;28;20477;-79
2022/05/19 01:23:41;;;;;;;4.00;2.97;;;19.30;99.90;;;;;;5015013;28;20449;-79
2022/05/19 01:26:16;;;;;;;3.70;2.77;;;19.20;99.90;;;;;;5012122;28;20973;-79
2022/05/19 01:28:45;;;;;;;5.27;2.83;;;19.20;99.90;;;;;;5017192;28;20460;-79
2022/05/19 01:31:27;;;;;;;4.07;2.90;;;19.20;99.90;;;;;;5022464;28;20477;-78
2022/05/19 01:33:54;;;;;;;5.63;3.07;;;19.20;99.90;;;;;;5020411;28;20457;-79
2022/05/19 01:36:21;;;;;;;3.90;2.50;;;19.20;99.90;;;;;;5023267;28;20445;-79
2022/05/19 01:38:56;;;;;;;3.60;2.73;;;19.20;99.90;;;;;;5021769;28;21078;-79
2022/05/19 01:41:30;;;;;;;4.00;2.80;;;19.20;99.90;;;;;;5018789;28;20560;-79
2022/05/19 01:44:15;;;;;;;3.17;2.60;;;19.20;99.90;;;;;;5008667;28;20461;-78
2022/05/19 01:46:44;;;;;;;5.33;3.37;;;19.20;99.90;;;;;;5011530;28;20468;-79
2022/05/19 01:49:21;;;;;;;5.57;2.90;;;19.30;99.90;;;;;;5015090;28;20973;-79
2022/05/19 01:51:55;;;;;;;4.83;2.57;;;19.20;99.90;;;;;;5014184;28;20985;-79
2022/05/19 01:54:29;;;;;;;3.80;2.90;;;19.20;99.90;;;;;;5015524;28;20855;-79
2022/05/19 01:57:00;;;;;;;4.80;2.53;;;19.20;99.90;;;;;;5015640;28;20500;-79
2022/05/19 01:59:35;;;;;;;3.20;2.67;;;19.20;99.90;;;;;;5014978;28;20490;-79
2022/05/19 02:02:09;;;;;;;5.23;2.67;;;19.20;99.90;;;;;;5008872;28;20500;-79
2022/05/19 02:04:40;;;;;;;3.50;2.50;;;19.20;99.90;;;;;;5020646;28;20465;-78
2022/05/19 02:07:10;;;;;;;9.07;2.70;;;19.20;99.90;;;;;;5013262;28;20452;-79
2022/05/19 02:09:43;;;;;;;3.60;2.83;;;19.20;99.90;;;;;;5013081;28;20441;-77
2022/05/19 02:12:10;;;;;;;4.00;3.10;;;19.20;99.90;;;;;;5013079;28;20862;-78
2022/05/19 02:14:43;;;;;;;4.00;2.60;;;19.20;99.90;;;;;;5013256;28;20830;-80
2022/05/19 02:17:13;;;;;;;5.40;3.37;;;19.20;99.90;;;;;;5011570;28;20958;-77
2022/05/19 02:19:42;;;;;;;4.63;3.50;;;19.20;99.90;;;;;;5011140;28;20477;-76
2022/05/19 02:22:13;;;;;;;3.67;2.20;;;19.30;99.90;;;;;;5011562;28;20476;-77
2022/05/19 02:24:44;;;;;;;3.67;2.40;;;19.30;99.90;;;;;;5011532;28;20456;-77
2022/05/19 02:27:31;;;;;;;4.00;2.50;;;19.30;99.90;;;;;;5011641;28;20553;-77
2022/05/19 02:30:00;;;;;;;2.60;2.27;;;19.30;99.90;;;;;;5010720;28;20468;-77
2022/05/19 02:32:27;;;;;;;5.33;2.57;;;19.30;99.90;;;;;;5017546;28;20480;-77
2022/05/19 02:34:54;;;;;;;3.23;2.57;;;19.30;99.90;;;;;;5012525;28;20450;-78
2022/05/19 02:37:21;;;;;;;3.63;2.73;;;19.30;99.90;;;;;;5005711;28;20458;-80
2022/05/19 02:39:48;;;;;;;5.77;3.27;;;19.30;99.90;;;;;;5024836;28;20485;-80
2022/05/19 02:42:15;;;;;;;3.10;2.50;;;19.30;99.90;;;;;;5014865;28;20499;-80
2022/05/19 02:44:44;;;;;;;3.60;2.40;;;19.20;99.90;;;;;;5020422;28;20463;-80
2022/05/19 02:47:12;;;;;;;4.50;2.87;;;19.20;99.90;;;;;;5022445;28;20910;-81
2022/05/19 02:49:39;;;;;;;5.40;2.70;;;19.20;99.90;;;;;;5018993;28;20462;-79
2022/05/19 02:52:06;;;;;;;3.20;2.50;;;19.20;99.90;;;;;;5020602;28;20486;-81
2022/05/19 02:54:33;;;;;;;4.00;2.33;;;19.20;99.90;;;;;;5008120;28;21062;-79
2022/05/19 02:57:00;;;;;;;5.73;2.43;;;19.20;99.90;;;;;;5011041;28;20452;-80
2022/05/19 02:59:26;;;;;;;4.77;2.27;;;19.20;99.90;;;;;;5023192;28;20485;-78
2022/05/19 03:01:53;;;;;;;7.90;2.73;;;19.20;99.90;;;;;;5027661;28;20461;-80
2022/05/19 03:04:21;;;;;;;3.20;2.20;;;19.20;99.90;;;;;;5027713;28;20468;-81
2022/05/19 03:06:48;;;;;;;6.03;2.73;;;19.30;99.90;;;;;;5023583;28;20491;-79
2022/05/19 03:09:15;;;;;;;3.50;2.83;;;19.30;99.90;;;;;;5024163;28;20459;-79
2022/05/19 03:11:42;;;;;;;4.30;2.33;;;19.30;99.90;;;;;;5024447;28;20480;-78
2022/05/19 03:14:09;;;;;;;3.70;2.77;;;19.30;99.90;;;;;;5026629;28;20460;-79
2022/05/19 03:16:36;;;;;;;5.13;3.60;;;19.30;99.90;;;;;;5028239;28;20492;-80
2022/05/19 03:19:03;;;;;;;4.77;2.97;;;19.30;99.90;;;;;;5027432;28;20507;-79
2022/05/19 03:21:31;;;;;;;4.07;2.57;;;19.30;99.90;;;;;;5020834;28;21251;-81
2022/05/19 03:23:58;;;;;;;3.50;2.97;;;19.30;99.90;;;;;;5020220;28;21149;-80
2022/05/19 03:26:25;;;;;;;3.87;2.70;;;19.30;99.90;;;;;;5018843;28;20459;-81
2022/05/19 03:28:52;;;;;;;5.40;2.80;;;19.20;99.90;;;;;;5017624;28;20465;-79
2022/05/19 03:31:19;;;;;;;4.83;2.50;;;19.20;99.90;;;;;;5017630;28;20864;-81
2022/05/19 03:33:45;;;;;;;3.30;2.60;;;19.20;99.90;;;;;;5023723;28;20540;-80
2022/05/19 03:36:12;;;;;;;4.07;3.10;;;19.20;99.90;;;;;;5018475;28;20453;-79
2022/05/19 03:38:41;;;;;;;3.83;3.10;;;19.20;99.90;;;;;;5026774;28;20464;-80
2022/05/19 03:41:07;;;;;;;7.40;3.07;;;19.20;99.90;;;;;;5018562;28;20524;-80
2022/05/19 03:43:34;;;;;;;3.20;2.70;;;19.10;99.90;;;;;;5019735;28;20464;-81
2022/05/19 03:46:02;;;;;;;5.50;3.03;;;19.10;99.90;;;;;;5018088;28;20449;-80
2022/05/19 03:48:33;;;;;;;3.20;2.67;;;19.20;99.90;;;;;;5018967;28;20461;-80
2022/05/19 03:51:00;;;;;;;3.53;2.63;;;19.10;99.90;;;;;;5019204;28;20917;-81
2022/05/19 03:53:27;;;;;;;4.70;2.70;;;19.10;99.90;;;;;;5021698;28;20792;-81
2022/05/19 03:55:56;;;;;;;4.53;2.27;;;19.10;99.90;;;;;;5015711;28;20458;-79
2022/05/19 03:58:23;;;;;;;4.40;2.60;;;19.10;99.90;;;;;;5016286;28;20454;-80
2022/05/19 04:00:50;;;;;;;4.03;2.63;;;19.10;99.90;;;;;;5016149;28;20520;-82
2022/05/19 04:03:17;;;;;;;5.23;2.87;;;19.20;99.90;;;;;;5013385;28;20461;-81
2022/05/19 04:05:44;;;;;;;4.63;2.63;;;19.20;99.90;;;;;;5015782;28;20457;-80
2022/05/19 04:08:11;;;;;;;4.23;2.90;;;19.20;99.90;;;;;;5015557;28;20829;-81
2022/05/19 04:10:42;;;;;;;4.17;3.10;;;19.20;99.90;;;;;;5015347;28;20460;-81
2022/05/19 04:16:32;;;;;;;6.80;3.90;;;19.20;99.90;;;;;;5004576;28;20449;-80
2022/05/19 04:18:59;;;;;;;4.97;3.17;;;19.20;99.90;;;;;;5016077;28;20457;-80
2022/05/19 04:21:25;;;;;;;5.40;3.40;;;19.20;99.90;;;;;;5015523;28;20501;-80
2022/05/19 04:23:52;;;;;;;5.20;3.10;;;19.20;99.90;;;;;;5019255;28;20450;-81
2022/05/19 04:26:19;;;;;;;4.40;3.13;;;19.20;99.90;;;;;;5019031;28;20457;-82
2022/05/19 04:28:46;;;;;;;3.40;2.57;;;19.30;99.90;;;;;;5019189;28;20454;-81
2022/05/19 04:31:12;;;;;;;3.87;3.20;;;19.30;99.90;;;;;;5017840;28;20553;-80
2022/05/19 04:33:41;;;;;;;3.30;3.00;;;19.40;99.90;;;;;;5016994;28;20459;-81
2022/05/19 04:36:08;;;;;;;5.23;3.00;;;19.40;99.90;;;;;;5017098;28;20544;-77
2022/05/19 04:38:34;;;;;;;3.17;2.70;;;19.50;99.90;;;;;;5017702;28;20477;-80
2022/05/19 04:41:04;;;;;;;3.80;2.80;;;19.50;99.90;;;;;;5017209;28;20494;-80
2022/05/19 04:43:31;;;;;;;5.53;2.87;;;19.60;99.90;;;;;;5017665;28;20972;-81
2022/05/19 04:45:58;;;;;;;5.00;3.20;;;19.70;99.90;;;;;;5017619;28;20842;-80
2022/05/19 04:48:26;;;;;;;6.27;2.60;;;19.70;99.90;;;;;;5017270;28;20969;-79
2022/05/19 04:50:56;;;;;;;3.00;2.67;;;19.70;99.90;;;;;;5018866;28;20473;-80
2022/05/19 04:53:23;;;;;;;2.80;2.40;;;19.80;99.90;;;;;;5016431;28;20469;-79
2022/05/19 04:55:52;;;;;;;4.10;2.80;;;19.90;99.90;;;;;;5014275;28;20905;-80
2022/05/19 04:58:19;;;;;;;4.87;2.80;;;20.00;99.90;;;;;;5012672;28;20549;-78
2022/05/19 05:00:48;;;;;;;6.43;2.50;;;20.10;99.90;;;;;;5016718;28;20556;-80
2022/05/19 05:03:15;;;;;;;3.57;2.37;;;20.20;99.90;;;;;;5015039;28;20454;-81
2022/05/19 05:05:42;;;;;;;3.30;2.20;;;20.30;99.90;;;;;;5013663;28;20458;-80
2022/05/19 05:08:10;;;;;;;4.07;2.60;;;20.40;99.90;;;;;;5014488;28;20466;-81
2022/05/19 05:10:37;;;;;;;5.03;2.63;;;20.50;99.90;;;;;;5013864;28;20458;-80
2022/05/19 05:13:08;;;;;;;3.77;2.63;;;20.70;99.90;;;;;;5018123;28;20453;-81
2022/05/19 05:15:35;;;;;;;6.33;2.70;;;20.80;99.90;;;;;;5015698;28;20442;-81
2022/05/19 05:18:03;;;;;;;3.60;2.83;;;21.00;99.90;;;;;;5013476;28;20460;-79
2022/05/19 05:20:29;;;;;;;4.17;3.00;;;21.10;99.90;;;;;;5013959;28;20508;-81
2022/05/19 05:22:56;;;;;;;5.20;2.90;;;21.20;99.90;;;;;;5013808;28;20461;-78
2022/05/19 05:25:26;;;;;;;4.40;2.97;;;21.30;99.90;;;;;;5015029;28;20465;-78
2022/05/19 05:27:53;;;;;;;2.97;2.37;;;21.30;99.90;;;;;;5017143;28;20457;-79
2022/05/19 05:30:20;;;;;;;4.30;2.97;;;21.40;99.90;;;;;;5019669;28;20945;-78
2022/05/19 05:32:47;;;;;;;3.00;2.53;;;21.50;99.90;;;;;;5016575;28;20579;-78
2022/05/19 05:35:14;;;;;;;3.67;2.53;;;21.50;99.90;;;;;;5015943;28;20454;-81
2022/05/19 05:37:41;;;;;;;4.87;2.93;;;21.50;99.90;;;;;;5017327;28;20458;-82
2022/05/19 05:40:10;;;;;;;3.73;2.30;;;21.60;99.90;;;;;;5017449;28;20494;-79
2022/05/19 05:42:41;;;;;;;6.47;3.57;;;21.60;99.90;;;;;;5018478;28;20474;-81
2022/05/19 05:45:09;;;;;;;4.00;2.50;;;21.70;99.90;;;;;;5018286;28;20474;-82
2022/05/19 05:47:36;;;;;;;4.10;2.70;;;21.80;99.90;;;;;;5017694;28;20458;-81
2022/05/19 05:50:03;;;;;;;5.30;2.77;;;21.80;99.90;;;;;;5001737;28;20451;-82
2022/05/19 05:52:29;;;;;;;3.83;2.77;;;21.80;99.90;;;;;;5021696;28;20485;-83
2022/05/19 05:54:59;;;;;;;4.53;2.73;;;21.80;99.90;;;;;;5023873;28;20464;-84
2022/05/19 05:57:27;;;;;;;6.20;2.73;;;21.90;99.90;;;;;;5020729;28;20866;-84
2022/05/19 05:59:55;;;;;;;3.63;2.80;;;21.90;99.90;;;;;;5010417;28;20457;-84
2022/05/19 06:02:22;;;;;;;3.73;2.57;;;21.80;99.90;;;;;;5018062;28;20471;-84
2022/05/19 06:04:49;;;;;;;6.10;3.30;;;21.80;99.90;;;;;;5028413;28;20481;-84
2022/05/19 06:07:16;;;;;;;7.67;2.93;;;21.80;99.90;;;;;;5026453;28;20485;-85
2022/05/19 06:09:44;;;;;;;3.93;3.27;;;21.70;99.90;;;;;;5021620;28;20454;-83
2022/05/19 06:12:11;;;;;;;4.17;2.80;;;21.80;99.90;;;;;;5018971;28;20477;-79
2022/05/19 06:14:38;;;;;;;4.77;3.20;;;21.80;99.90;;;;;;5022702;28;20444;-82
2022/05/19 06:17:06;;;;;;;5.67;2.47;;;21.80;99.90;;;;;;5022053;28;20450;-83
2022/05/19 06:19:33;;;;;;;5.60;2.80;;;21.80;99.90;;;;;;5022164;28;20452;-83
2022/05/19 06:22:00;;;;;;;4.07;2.97;;;21.90;99.90;;;;;;5032750;28;20484;-83
2022/05/19 06:24:27;;;;;;;7.80;3.93;;;22.00;99.90;;;;;;5032881;28;20464;-84
2022/05/19 06:26:54;;;;;;;5.93;3.07;;;22.20;99.90;;;;;;5027821;28;20991;-83
2022/05/19 06:29:20;;;;;;;13.03;3.80;;;22.20;99.90;;;;;;5025831;28;20445;-84
2022/05/19 06:31:47;;;;;;;8.83;3.23;;;22.40;99.90;;;;;;5022075;28;20536;-83
2022/05/19 06:34:15;;;;;;;5.77;3.00;;;22.50;99.90;;;;;;5022005;28;20461;-83
2022/05/19 06:36:42;;;;;;;5.07;3.17;;;22.60;99.90;;;;;;5015783;28;20903;-80
2022/05/19 06:39:09;;;;;;;4.17;2.70;;;22.70;99.90;;;;;;5024156;28;20549;-80
2022/05/19 06:44:21;;;;;;;4.30;3.23;;;22.90;99.90;;;;;;5020301;28;20504;-84
2022/05/19 06:46:48;;;;;;;5.20;3.20;;;23.10;99.90;;;;;;5019023;28;20460;-82
2022/05/19 06:49:17;;;;;;;4.00;3.07;;;23.20;99.90;;;;;;5021787;28;20548;-83
2022/05/19 06:51:45;;;;;;;4.60;3.00;;;23.30;99.90;;;;;;5017379;28;20521;-82
2022/05/19 06:54:12;;;;;;;6.47;2.77;;;23.50;99.90;;;;;;5016792;28;20462;-83
2022/05/19 06:56:38;;;;;;;5.63;3.07;;;23.70;99.90;;;;;;5024268;28;20457;-84
2022/05/19 06:59:06;;;;;;;6.63;3.40;;;23.80;99.90;;;;;;5033546;28;20453;-84
2022/05/19 07:01:33;;;;;;;5.40;3.30;;;23.80;99.90;;;;;;5031746;28;20496;-84
2022/05/19 07:04:00;;;;;;;9.27;2.90;;;24.10;99.90;;;;;;5029461;28;20850;-84
2022/05/19 07:06:29;;;;;;;4.70;2.90;;;24.10;99.90;;;;;;5029187;28;20864;-84
2022/05/19 07:08:55;;;;;;;4.63;3.00;;;24.50;99.90;;;;;;5028644;28;20449;-84
2022/05/19 07:11:25;;;;;;;6.30;2.53;;;24.70;99.90;;;;;;5021052;28;20544;-84
2022/05/19 07:13:54;;;;;;;5.00;3.00;;;24.90;99.90;;;;;;5021001;28;20521;-83
2022/05/19 07:16:21;;;;;;;3.83;3.13;;;25.00;99.90;;;;;;5019994;28;20536;-83
2022/05/19 07:18:48;;;;;;;4.27;2.50;;;25.00;99.90;;;;;;5064017;22;20501;-79
2022/05/19 07:21:14;;;;;;;4.77;2.50;;;25.10;99.90;;;;;;5077507;28;20489;-78
2022/05/19 07:23:42;;;;;;;5.80;2.20;;;25.00;99.90;;;;;;5078493;28;20443;-78
2022/05/19 07:26:09;;;;;;;5.60;2.97;;;24.90;99.90;;;;;;5076250;28;20832;-78
2022/05/19 07:28:36;;;;;;;3.53;2.60;;;24.80;99.90;;;;;;5071424;28;20474;-80
2022/05/19 07:31:03;;;;;;;4.20;2.17;;;24.70;99.90;;;;;;5057632;28;20447;-79
2022/05/19 07:33:30;;;;;;;3.87;2.27;;;24.60;99.90;;;;;;5056903;28;20460;-78
2022/05/19 07:35:57;;;;;;;4.13;2.30;;;24.70;99.90;;;;;;5058311;28;21035;-78
2022/05/19 07:38:23;;;;;;;5.13;2.57;;;24.80;99.90;;;;;;5057955;28;20478;-78
2022/05/19 07:40:54;;;;;;;5.53;2.63;;;25.00;99.90;;;;;;5056701;28;20484;-80
2022/05/19 07:43:41;;;;;;;4.40;2.53;;;25.30;99.90;;;;;;5057154;28;20466;-79
2022/05/19 07:46:10;;;;;;;5.60;2.90;;;25.50;99.90;;;;;;5056950;28;20464;-78
2022/05/19 07:48:38;;;;;;;3.53;2.30;;;25.70;99.90;;;;;;5057176;28;20479;-78
2022/05/19 07:51:06;;;;;;;4.00;2.37;;;25.90;99.90;;;;;;5058735;28;21026;-78
2022/05/19 07:53:33;;;;;;;3.93;2.70;;;25.90;99.90;;;;;;5058207;28;20511;-78
2022/05/19 07:56:01;;;;;;;3.30;2.37;;;26.10;99.90;;;;;;5057757;28;20963;-78
2022/05/19 07:58:29;;;;;;;3.77;2.57;;;25.80;99.90;;;;;;5057594;28;20476;-77
2022/05/19 08:00:56;;;;;;;6.40;2.60;;;25.90;99.90;;;;;;5058072;28;21018;-78
2022/05/19 08:03:23;;;;;;;4.27;2.93;;;25.60;99.90;;;;;;5056025;28;20487;-78
2022/05/19 08:05:51;;;;;;;4.37;2.53;;;25.90;99.90;;;;;;5055892;28;20510;-77
2022/05/19 08:08:18;;;;;;;4.83;2.63;;;26.30;99.90;;;;;;5055681;28;20480;-78
2022/05/19 08:10:45;;;;;;;5.17;3.47;;;26.60;99.90;;;;;;5056430;28;20615;-77
2022/05/19 08:16:02;;;;;;;4.43;2.77;;;27.00;99.90;;;;;;4997994;28;20447;-78
2022/05/19 08:18:29;;;;;;;6.90;2.90;;;27.10;99.90;;;;;;5054494;28;20480;-77
2022/05/19 08:20:58;;;;;;;4.63;2.63;;;27.30;99.90;;;;;;5055879;28;20570;-79
2022/05/19 08:23:28;;;;;;;6.70;3.07;;;27.50;99.90;;;;;;5058314;28;20463;-78
2022/05/19 08:25:56;;;;;;;3.43;2.43;;;27.80;99.90;;;;;;5056522;28;20463;-78
2022/05/19 08:28:29;;;;;;;4.40;2.63;;;27.80;99.90;;;;;;5056265;28;20475;-79
2022/05/19 08:30:57;;;;;;;3.57;2.73;;;28.00;99.90;;;;;;5055608;28;20895;-78
2022/05/19 08:33:24;;;;;;;4.20;2.57;;;28.30;99.90;;;;;;5055337;28;20456;-77
2022/05/19 08:35:51;;;;;;;4.43;2.60;;;28.30;99.90;;;;;;5055330;28;20458;-78
2022/05/19 08:38:18;;;;;;;7.17;3.00;;;28.40;99.90;;;;;;5056077;28;20471;-79
2022/05/19 08:40:49;;;;;;;5.13;2.97;;;28.10;99.90;;;;;;5055303;28;20458;-79
2022/05/19 08:43:19;;;;;;;4.50;2.50;;;28.10;99.90;;;;;;5055628;28;20835;-77
2022/05/19 08:45:51;;;;;;;5.10;3.00;;;28.00;99.90;;;;;;5055762;28;20452;-78
2022/05/19 08:48:21;;;;;;;4.70;2.53;;;28.00;99.90;;;;;;5056568;28;20472;-78
2022/05/19 08:50:51;;;;;;;3.30;2.23;;;27.90;99.90;;;;;;5056241;28;20451;-80
2022/05/19 08:53:18;;;;;;;4.63;2.30;;;28.00;99.90;;;;;;5056927;28;20483;-78
2022/05/19 08:55:51;;;;;;;3.77;2.20;;;28.10;99.90;;;;;;5055432;28;20482;-80
2022/05/19 08:58:48;;;;;;;7.07;2.67;;;28.10;99.90;;;;;;5055716;28;20851;-80
2022/05/19 09:01:20;;;;;;;4.27;2.30;;;28.00;99.90;;;;;;5043011;28;20579;-79
2022/05/19 09:04:01;;;;;;;8.90;3.10;;;28.10;99.90;;;;;;5056884;28;21040;-80
2022/05/19 09:06:39;;;;;;;3.97;2.30;;;28.40;99.90;;;;;;5056475;28;20462;-79
2022/05/19 09:09:27;;;;;;;4.60;2.40;;;28.70;99.90;;;;;;5055995;28;20479;-78
2022/05/19 09:12:00;;;;;;;6.90;3.60;;;28.60;99.90;;;;;;5055443;28;20448;-77
2022/05/19 09:14:29;;;;;;;4.37;2.23;;;28.50;99.90;;;;;;5053491;28;20459;-78
2022/05/19 09:17:03;;;;;;;4.70;2.47;;;28.40;99.90;;;;;;5045547;28;20445;-80
2022/05/19 09:19:36;;;;;;;4.50;3.20;;;28.50;99.90;;;;;;5052584;28;21014;-77
2022/05/19 09:22:06;;;;;;;3.63;2.53;;;28.50;99.90;;;;;;5055602;28;20491;-79
2022/05/19 09:24:33;;;;;;;3.30;2.27;;;28.60;99.90;;;;;;5057626;28;20810;-78
2022/05/19 09:27:01;;;;;;;5.43;2.40;;;28.90;99.90;;;;;;5058124;28;20443;-79
2022/05/19 09:29:34;;;;;;;3.47;2.60;;;29.10;99.90;;;;;;5056760;28;20483;-78
2022/05/19 09:32:08;;;;;;;4.60;2.87;;;29.20;99.90;;;;;;5057637;28;20459;-78
2022/05/19 09:34:36;;;;;;;5.43;2.67;;;29.60;99.90;;;;;;5059943;28;20463;-81
2022/05/19 09:37:09;;;;;;;3.27;2.30;;;29.80;99.90;;;;;;5057211;28;20456;-79
2022/05/19 09:39:45;;;;;;;4.80;2.70;;;30.30;99.90;;;;;;5054475;28;20476;-78
2022/05/19 09:42:17;;;;;;;2.90;2.20;;;30.90;99.90;;;;;;5056418;28;20487;-79
2022/05/19 09:44:48;;;;;;;5.50;2.57;;;31.60;99.90;;;;;;5056013;28;20491;-77
2022/05/19 09:47:25;;;;;;;4.70;2.90;;;31.50;99.90;;;;;;5057217;28;20452;-79
2022/05/19 09:50:02;;;;;;;5.40;2.60;;;32.00;99.90;;;;;;5049986;28;20847;-78
2022/05/19 09:52:32;;;;;;;5.00;2.90;;;33.00;99.90;;;;;;5037746;28;20492;-77
2022/05/19 09:55:02;;;;;;;4.57;2.30;;;33.80;99.90;;;;;;5041424;28;20464;-79
2022/05/19 09:57:39;;;;;;;3.57;2.53;;;34.50;99.90;;;;;;5053054;28;20448;-78
2022/05/19 10:00:12;;;;;;;4.97;2.37;;;34.70;99.90;;;;;;5039321;28;20479;-77
2022/05/19 10:02:46;;;;;;;6.57;3.27;;;35.30;99.90;;;;;;5050717;28;20484;-79
2022/05/19 10:05:25;;;;;;;4.77;2.77;;;35.30;99.90;;;;;;5055383;28;20448;-80
2022/05/19 10:07:57;;;;;;;5.47;2.40;;;36.10;99.90;;;;;;5056095;28;20444;-77
2022/05/19 10:10:27;;;;;;;3.43;2.77;;;36.50;99.90;;;;;;5061607;28;20463;-81
2022/05/19 10:13:02;;;;;;;3.87;2.50;;;37.30;99.90;;;;;;5066498;28;20517;-79
2022/05/19 10:15:45;;;;;;;4.07;2.70;;;37.70;97.00;;;;;;5069788;28;20455;-85
2022/05/19 10:18:22;;;;;;;4.63;2.20;;;37.90;93.60;;;;;;5062229;28;20480;-82
2022/05/19 10:20:59;;;;;;;4.77;1.97;;;37.90;89.50;;;;;;5041342;28;20459;-82
2022/05/19 10:23:42;;;;;;;4.67;2.60;;;38.70;92.60;;;;;;5047406;28;20479;-83
2022/05/19 10:26:24;;;;;;;4.13;2.80;;;40.20;93.50;;;;;;5062553;28;20485;-84
2022/05/19 10:32:01;;;;;;;2.67;1.90;;;41.90;84.30;;;;;;5046813;28;20446;-82
2022/05/19 10:34:55;;;;;;;4.83;2.27;;;41.60;99.90;;;;;;5053645;28;20493;-81
2022/05/19 10:37:31;;;;;;;4.00;2.60;;;42.20;99.90;;;;;;5053881;28;20538;-83
2022/05/19 10:40:22;;;;;;;2.70;2.00;;;43.30;99.90;;;;;;5054217;28;20550;-82
2022/05/19 10:42:58;;;;;;;3.53;1.70;;;44.30;99.90;;;;;;5054379;28;20566;-84
2022/05/19 10:45:28;;;;;;;4.13;2.60;;;44.40;99.90;;;;;;5049992;28;20442;-83
2022/05/19 10:48:15;;;;;;;4.20;2.10;;;43.50;99.90;;;;;;5053481;28;20525;-84
2022/05/19 10:50:52;;;;;;;6.23;2.40;;;43.40;99.90;;;;;;5061403;28;20486;-84
2022/05/19 10:53:39;;;;;;;2.70;1.70;;;43.10;99.90;;;;;;5049566;28;20458;-83
2022/05/19 10:56:28;;;;;;;3.07;2.07;;;44.10;99.90;;;;;;5061162;28;20857;-82
2022/05/19 10:59:09;;;;;;;3.63;2.10;;;45.40;99.90;;;;;;5060288;28;20486;-84
2022/05/19 11:01:48;;;;;;;3.60;2.13;;;45.50;99.90;;;;;;5062312;28;20947;-82
2022/05/19 11:04:55;;;;;;;2.60;2.10;;;44.90;99.90;;;;;;5064414;28;20456;-82
2022/05/19 11:07:33;;;;;;;2.97;2.00;;;44.70;99.90;;;;;;5065717;28;20455;-82
2022/05/19 11:10:11;;;;;;;4.93;2.43;;;45.10;99.90;;;;;;5062009;28;20466;-83
2022/05/19 11:12:47;;;;;;;3.47;2.17;;;45.60;99.90;;;;;;5063783;28;20959;-83
2022/05/19 11:15:21;;;;;;;2.87;2.00;;;45.90;99.90;;;;;;5064992;28;20481;-82
2022/05/19 11:17:57;;;;;;;3.47;2.30;;;46.00;99.90;;;;;;5066276;28;20455;-83
2022/05/19 11:20:27;;;;;;;2.83;2.13;;;47.00;99.90;;;;;;5049699;28;20485;-84
2022/05/19 11:23:03;;;;;;;3.43;2.20;;;47.00;99.90;;;;;;5065938;28;20567;-83
2022/05/19 11:28:26;;;;;;;4.00;3.03;;;46.90;99.90;;;;;;5058839;28;20467;-82
2022/05/19 11:30:59;;;;;;;3.13;2.17;;;45.70;99.90;;;;;;5054958;28;21106;-84
2022/05/19 11:33:31;;;;;;;4.00;1.97;;;44.60;99.90;;;;;;5057797;28;20970;-85
2022/05/19 11:36:02;;;;;;;3.93;2.50;;;42.30;99.90;;;;;;5062128;28;20567;-84
2022/05/19 11:38:37;;;;;;;4.33;2.80;;;39.90;99.90;;;;;;5058284;28;20506;-82
2022/05/19 11:41:08;;;;;;;4.20;2.40;;;38.40;99.90;;;;;;5055699;28;20509;-81
2022/05/19 11:43:40;;;;;;;4.20;3.10;;;37.40;99.90;;;;;;5055776;28;20494;-81
2022/05/19 11:46:10;;;;;;;4.43;3.10;;;36.40;99.90;;;;;;5057030;28;20947;-83
2022/05/19 11:57:29;;;;;;;4.37;2.63;;;33.40;99.90;;;;;;5041102;28;20494;-82
2022/05/19 12:00:00;;;;;;;7.13;3.00;;;35.70;99.90;;;;;;5059991;28;20502;-81
2022/05/19 12:02:38;;;;;;;3.87;2.10;;;38.10;99.90;;;;;;5056504;28;20492;-82
2022/05/19 12:12:06;;;;;;;3.73;2.37;;;45.10;99.90;;;;;;5060372;28;20414;-82
2022/05/19 12:14:38;;;;;;;3.00;2.30;;;45.50;99.90;;;;;;5059706;28;20444;-82
2022/05/19 12:17:25;;;;;;;3.00;2.40;;;46.00;99.90;;;;;;5060159;28;20456;-82
2022/05/19 12:19:54;;;;;;;3.60;2.50;;;47.20;99.90;;;;;;5057909;28;20563;-79
2022/05/19 12:22:32;;;;;;;3.80;2.00;;;46.50;99.90;;;;;;5062380;28;20487;-82
2022/05/19 12:25:14;;;;;;;4.50;2.50;;;47.80;99.90;;;;;;5063300;28;20522;-85
2022/05/19 12:27:53;;;;;;;6.60;2.00;;;48.50;99.90;;;;;;5058006;28;20543;-81
2022/05/19 12:33:23;;;;;;;4.30;2.30;;;48.40;99.90;;;;;;5067641;28;20435;-79
2022/05/19 12:35:53;;;;;;;3.43;2.40;;;47.80;99.90;;;;;;5060626;28;20451;-82
2022/05/19 12:38:33;;;;;;;4.73;2.57;;;47.50;99.90;;;;;;5063567;28;20531;-82
2022/05/19 12:41:02;;;;;;;3.53;2.17;;;48.30;99.90;;;;;;5061920;28;20458;-79
2022/05/19 12:43:41;;;;;;;4.73;2.47;;;47.90;99.90;;;;;;5042807;28;20492;-81
2022/05/19 12:46:11;;;;;;;4.40;2.63;;;46.40;99.90;;;;;;5057570;28;20452;-81
2022/05/19 12:48:49;;;;;;;2.83;2.20;;;45.80;99.90;;;;;;5064044;28;20452;-81
2022/05/19 12:51:37;;;;;;;4.77;2.90;;;46.60;99.90;;;;;;5063271;28;20451;-82
2022/05/19 12:54:10;;;;;;;4.10;2.33;;;46.60;99.90;;;;;;5059726;28;20462;-81
2022/05/19 12:56:59;;;;;;;3.40;2.00;;;46.60;99.90;;;;;;5060314;28;20709;-83
2022/05/19 12:59:47;;;;;;;3.50;2.00;;;47.10;99.90;;;;;;5059297;28;21014;-81
2022/05/19 13:02:30;;;;;;;3.30;2.20;;;46.00;99.90;;;;;;5056319;28;20598;-82
2022/05/19 13:05:00;;;;;;;4.43;2.20;;;43.30;99.90;;;;;;5058604;28;20490;-80
2022/05/19 13:07:32;;;;;;;4.90;2.40;;;40.70;99.90;;;;;;5060580;28;20460;-84
2022/05/19 13:10:04;;;;;;;6.80;2.93;;;39.00;99.90;;;;;;5058563;28;20476;-80
2022/05/19 13:12:49;;;;;;;3.77;2.30;;;36.60;99.90;;;;;;5059948;28;20820;-80
2022/05/19 13:15:25;;;;;;;4.30;3.10;;;35.70;99.90;;;;;;5060200;28;20447;-80
2022/05/19 13:17:53;;;;;;;5.20;2.60;;;34.40;99.90;;;;;;5060907;28;20455;-81
2022/05/19 13:20:24;;;;;;;4.70;2.40;;;33.40;99.90;;;;;;5062241;28;20936;-80
2022/05/19 13:22:59;;;;;;;4.40;2.40;;;32.70;99.90;;;;;;5058203;28;20482;-80
2022/05/19 13:25:27;;;;;;;4.57;2.90;;;32.10;99.90;;;;;;5058380;28;20493;-80
2022/05/19 13:30:53;;;;;;;12.37;3.33;;;30.60;99.90;;;;;;5015586;28;20437;-80
2022/05/19 13:33:23;;;;;;;14.70;3.23;;;29.60;99.90;;;;;;5018786;28;20520;-81
2022/05/19 13:36:01;;;;;;;19.10;3.20;;;28.80;99.90;;;;;;5019081;28;20484;-83
2022/05/19 13:38:28;;;;;;;22.33;3.50;;;28.00;99.90;;;;;;5007087;28;20462;-80
2022/05/19 13:40:56;;;;;;;14.03;2.10;;;27.40;99.90;;;;;;4998187;28;20457;-84